aviador You're here:

LFAQ Decoded Metar

ALBERT in FRANCE
Report Time2017-05-28 06:30:00
UTC Time2017-05-28 06:46:23
Flight Rules ifr IFR
Wind030° at 05 kt
W.Decomp.*RWY 09: 2.6 kt HW 4.3 kt LCW
W.Rank030° ranks 12
Current wind is below 030° avg. (7.9)
Visibility9999 m
Phenomena:Thuderstorm Rain
Clouds:Broken 007 Hf
Expected CloudBase > 2,000 ft AGL from Temp-Dew spread
Ceiling700 ft
Temp19°C (ISA +5)
Dew Point14°C (73% RH)
AAT18.5°C
QNH1018 hPa
Density Alt965 ft
Elevation364 ft
Report Wrong Elevation
Raw Report
METAR LFAQ 280630Z AUTO 03005KT 010V070 CAVOK 19/14 Q1018 TEMPO
1500 TSRA BKN007 BKN050CB=

Extra information for LFAQ:More info

Metar Taf Metar & Taf Last 4 Metars F.Rules Stats Wind Profile Meteogram Temp Stats Airport Information Weather charts Add Link Nearby VenuesMetar ALERT Operation Metar Decoded Social comments